sensor_id;sensor_type;location;lat;lon;timestamp;temperature;humidity
7234;DHT22;3658;47.992;10.158;2022-10-16T00:01:15;21.30;57.70
7234;DHT22;3658;47.992;10.158;2022-10-16T00:03:43;21.30;57.70
7234;DHT22;3658;47.992;10.158;2022-10-16T00:06:13;21.30;57.70
7234;DHT22;3658;47.992;10.158;2022-10-16T00:08:40;21.40;57.70
7234;DHT22;3658;47.992;10.158;2022-10-16T00:11:09;21.40;57.70
7234;DHT22;3658;47.992;10.158;2022-10-16T00:13:38;21.30;57.70
7234;DHT22;3658;47.992;10.158;2022-10-16T00:16:07;21.30;57.70
7234;DHT22;3658;47.992;10.158;2022-10-16T00:18:35;21.30;57.70
7234;DHT22;3658;47.992;10.158;2022-10-16T00:21:03;21.30;57.60
7234;DHT22;3658;47.992;10.158;2022-10-16T00:23:32;21.30;57.60
7234;DHT22;3658;47.992;10.158;2022-10-16T00:26:00;21.30;57.60
7234;DHT22;3658;47.992;10.158;2022-10-16T00:28:28;21.30;57.60
7234;DHT22;3658;47.992;10.158;2022-10-16T00:30:55;21.30;57.60
7234;DHT22;3658;47.992;10.158;2022-10-16T00:33:22;21.30;57.60
7234;DHT22;3658;47.992;10.158;2022-10-16T00:35:50;21.30;57.60
7234;DHT22;3658;47.992;10.158;2022-10-16T00:38:17;21.30;57.60
7234;DHT22;3658;47.992;10.158;2022-10-16T00:40:45;21.30;57.60
7234;DHT22;3658;47.992;10.158;2022-10-16T00:43:14;21.30;57.60
7234;DHT22;3658;47.992;10.158;2022-10-16T00:45:58;21.30;57.50
7234;DHT22;3658;47.992;10.158;2022-10-16T00:48:25;21.30;57.50
7234;DHT22;3658;47.992;10.158;2022-10-16T00:50:53;21.30;57.50
7234;DHT22;3658;47.992;10.158;2022-10-16T00:53:21;21.30;57.50
7234;DHT22;3658;47.992;10.158;2022-10-16T00:55:50;21.30;57.60
7234;DHT22;3658;47.992;10.158;2022-10-16T00:58:17;21.30;57.50
7234;DHT22;3658;47.992;10.158;2022-10-16T01:00:44;21.30;57.50
7234;DHT22;3658;47.992;10.158;2022-10-16T01:03:24;21.30;57.50
7234;DHT22;3658;47.992;10.158;2022-10-16T01:06:09;21.30;57.50
7234;DHT22;3658;47.992;10.158;2022-10-16T01:08:47;21.30;57.50
7234;DHT22;3658;47.992;10.158;2022-10-16T01:11:22;21.30;57.50
7234;DHT22;3658;47.992;10.158;2022-10-16T01:13:55;21.30;57.50
7234;DHT22;3658;47.992;10.158;2022-10-16T01:16:28;21.30;57.50
7234;DHT22;3658;47.992;10.158;2022-10-16T01:19:00;21.30;57.50
7234;DHT22;3658;47.992;10.158;2022-10-16T01:21:32;21.30;57.50
7234;DHT22;3658;47.992;10.158;2022-10-16T01:24:06;21.30;57.50
7234;DHT22;3658;47.992;10.158;2022-10-16T01:26:50;21.30;57.50
7234;DHT22;3658;47.992;10.158;2022-10-16T01:29:25;21.30;57.50
7234;DHT22;3658;47.992;10.158;2022-10-16T01:31:58;21.30;57.50
7234;DHT22;3658;47.992;10.158;2022-10-16T01:34:32;21.30;57.50
7234;DHT22;3658;47.992;10.158;2022-10-16T01:37:04;21.30;57.50
7234;DHT22;3658;47.992;10.158;2022-10-16T01:39:35;21.30;57.50
7234;DHT22;3658;47.992;10.158;2022-10-16T01:42:07;21.30;57.50
7234;DHT22;3658;47.992;10.158;2022-10-16T01:44:38;21.30;57.50
7234;DHT22;3658;47.992;10.158;2022-10-16T01:47:08;21.30;57.50
7234;DHT22;3658;47.992;10.158;2022-10-16T01:49:37;21.20;57.40
7234;DHT22;3658;47.992;10.158;2022-10-16T01:52:07;21.30;57.40
7234;DHT22;3658;47.992;10.158;2022-10-16T01:54:37;21.20;57.30
7234;DHT22;3658;47.992;10.158;2022-10-16T01:57:07;21.30;57.40
7234;DHT22;3658;47.992;10.158;2022-10-16T01:59:41;21.20;57.30
7234;DHT22;3658;47.992;10.158;2022-10-16T02:02:10;21.20;57.30
7234;DHT22;3658;47.992;10.158;2022-10-16T02:04:39;21.20;57.30
7234;DHT22;3658;47.992;10.158;2022-10-16T02:07:07;21.20;57.30
7234;DHT22;3658;47.992;10.158;2022-10-16T02:09:35;21.20;57.30
7234;DHT22;3658;47.992;10.158;2022-10-16T02:12:06;21.20;57.40
7234;DHT22;3658;47.992;10.158;2022-10-16T02:14:39;21.20;57.40
7234;DHT22;3658;47.992;10.158;2022-10-16T02:17:11;21.20;57.30
7234;DHT22;3658;47.992;10.158;2022-10-16T02:19:38;21.20;57.30
7234;DHT22;3658;47.992;10.158;2022-10-16T02:22:10;21.20;57.30
7234;DHT22;3658;47.992;10.158;2022-10-16T02:24:50;21.20;57.30
7234;DHT22;3658;47.992;10.158;2022-10-16T02:27:21;21.20;57.30
7234;DHT22;3658;47.992;10.158;2022-10-16T02:29:53;21.20;57.30
7234;DHT22;3658;47.992;10.158;2022-10-16T02:32:28;21.20;57.30
7234;DHT22;3658;47.992;10.158;2022-10-16T02:34:58;21.20;57.30
7234;DHT22;3658;47.992;10.158;2022-10-16T02:37:28;21.20;57.30
7234;DHT22;3658;47.992;10.158;2022-10-16T02:39:57;21.20;57.30
7234;DHT22;3658;47.992;10.158;2022-10-16T02:42:29;21.20;57.30
7234;DHT22;3658;47.992;10.158;2022-10-16T02:44:57;21.20;57.30
7234;DHT22;3658;47.992;10.158;2022-10-16T02:47:25;21.20;57.30
7234;DHT22;3658;47.992;10.158;2022-10-16T02:49:52;21.20;57.30
7234;DHT22;3658;47.992;10.158;2022-10-16T02:52:19;21.20;57.30
7234;DHT22;3658;47.992;10.158;2022-10-16T02:54:46;21.20;57.30
7234;DHT22;3658;47.992;10.158;2022-10-16T02:57:13;21.20;57.30
7234;DHT22;3658;47.992;10.158;2022-10-16T02:59:39;21.20;57.30
7234;DHT22;3658;47.992;10.158;2022-10-16T03:02:08;21.20;57.20
7234;DHT22;3658;47.992;10.158;2022-10-16T03:04:35;21.20;57.30
7234;DHT22;3658;47.992;10.158;2022-10-16T03:07:02;21.20;57.30
7234;DHT22;3658;47.992;10.158;2022-10-16T03:09:29;21.20;57.30
7234;DHT22;3658;47.992;10.158;2022-10-16T03:11:56;21.20;57.20
7234;DHT22;3658;47.992;10.158;2022-10-16T03:14:23;21.20;57.30
7234;DHT22;3658;47.992;10.158;2022-10-16T03:16:50;21.20;57.30
7234;DHT22;3658;47.992;10.158;2022-10-16T03:19:18;21.20;57.20
7234;DHT22;3658;47.992;10.158;2022-10-16T03:21:46;21.20;57.20
7234;DHT22;3658;47.992;10.158;2022-10-16T03:24:13;21.20;57.20
7234;DHT22;3658;47.992;10.158;2022-10-16T03:26:40;21.20;57.20
7234;DHT22;3658;47.992;10.158;2022-10-16T03:29:07;21.20;57.20
7234;DHT22;3658;47.992;10.158;2022-10-16T03:31:34;21.20;57.20
7234;DHT22;3658;47.992;10.158;2022-10-16T03:34:01;21.20;57.20
7234;DHT22;3658;47.992;10.158;2022-10-16T03:36:29;21.20;57.20
7234;DHT22;3658;47.992;10.158;2022-10-16T03:38:56;21.20;57.20
7234;DHT22;3658;47.992;10.158;2022-10-16T03:41:23;21.20;57.20
7234;DHT22;3658;47.992;10.158;2022-10-16T03:43:50;21.10;57.20
7234;DHT22;3658;47.992;10.158;2022-10-16T03:46:17;21.20;57.20
7234;DHT22;3658;47.992;10.158;2022-10-16T03:48:44;21.20;57.20
7234;DHT22;3658;47.992;10.158;2022-10-16T03:51:11;21.20;57.20
7234;DHT22;3658;47.992;10.158;2022-10-16T03:53:39;21.10;57.20
7234;DHT22;3658;47.992;10.158;2022-10-16T03:56:06;21.10;57.20
7234;DHT22;3658;47.992;10.158;2022-10-16T03:58:33;21.10;57.20
7234;DHT22;3658;47.992;10.158;2022-10-16T04:01:00;21.10;57.20
7234;DHT22;3658;47.992;10.158;2022-10-16T04:03:27;21.10;57.10
7234;DHT22;3658;47.992;10.158;2022-10-16T04:05:55;21.10;57.20
7234;DHT22;3658;47.992;10.158;2022-10-16T04:08:22;21.10;57.20
7234;DHT22;3658;47.992;10.158;2022-10-16T04:10:50;21.10;57.20
7234;DHT22;3658;47.992;10.158;2022-10-16T04:13:17;21.10;57.20
7234;DHT22;3658;47.992;10.158;2022-10-16T04:15:45;21.10;57.20
7234;DHT22;3658;47.992;10.158;2022-10-16T04:18:12;21.10;57.20
7234;DHT22;3658;47.992;10.158;2022-10-16T04:20:39;21.10;57.20
7234;DHT22;3658;47.992;10.158;2022-10-16T04:23:06;21.10;57.20
7234;DHT22;3658;47.992;10.158;2022-10-16T04:25:33;21.10;57.20
7234;DHT22;3658;47.992;10.158;2022-10-16T04:28:01;21.10;57.20
7234;DHT22;3658;47.992;10.158;2022-10-16T04:30:28;21.10;57.20
7234;DHT22;3658;47.992;10.158;2022-10-16T04:32:55;21.10;57.20
7234;DHT22;3658;47.992;10.158;2022-10-16T04:35:22;21.10;57.20
7234;DHT22;3658;47.992;10.158;2022-10-16T04:37:49;21.10;57.20
7234;DHT22;3658;47.992;10.158;2022-10-16T04:40:17;21.10;57.70
7234;DHT22;3658;47.992;10.158;2022-10-16T04:42:45;21.10;57.10
7234;DHT22;3658;47.992;10.158;2022-10-16T04:45:13;21.10;57.20
7234;DHT22;3658;47.992;10.158;2022-10-16T04:47:40;21.10;57.20
7234;DHT22;3658;47.992;10.158;2022-10-16T04:50:08;21.10;57.20
7234;DHT22;3658;47.992;10.158;2022-10-16T04:52:35;21.10;57.10
7234;DHT22;3658;47.992;10.158;2022-10-16T04:55:02;21.10;57.20
7234;DHT22;3658;47.992;10.158;2022-10-16T04:57:29;21.10;57.10
7234;DHT22;3658;47.992;10.158;2022-10-16T04:59:56;21.10;57.20
7234;DHT22;3658;47.992;10.158;2022-10-16T05:02:25;21.10;57.20
7234;DHT22;3658;47.992;10.158;2022-10-16T05:04:52;21.10;57.10
7234;DHT22;3658;47.992;10.158;2022-10-16T05:07:19;21.10;57.10
7234;DHT22;3658;47.992;10.158;2022-10-16T05:09:46;21.10;57.20
7234;DHT22;3658;47.992;10.158;2022-10-16T05:12:13;21.10;57.10
7234;DHT22;3658;47.992;10.158;2022-10-16T05:14:40;21.10;57.20
7234;DHT22;3658;47.992;10.158;2022-10-16T05:17:07;21.10;57.20
7234;DHT22;3658;47.992;10.158;2022-10-16T05:19:38;21.10;57.20
7234;DHT22;3658;47.992;10.158;2022-10-16T05:22:05;21.10;57.20
7234;DHT22;3658;47.992;10.158;2022-10-16T05:24:32;21.10;57.80
7234;DHT22;3658;47.992;10.158;2022-10-16T05:26:58;21.10;57.20
7234;DHT22;3658;47.992;10.158;2022-10-16T05:29:25;21.10;57.20
7234;DHT22;3658;47.992;10.158;2022-10-16T05:31:53;21.10;57.20
7234;DHT22;3658;47.992;10.158;2022-10-16T05:34:20;21.10;57.20
7234;DHT22;3658;47.992;10.158;2022-10-16T05:36:49;21.10;57.20
7234;DHT22;3658;47.992;10.158;2022-10-16T05:39:16;21.10;57.20
7234;DHT22;3658;47.992;10.158;2022-10-16T05:41:43;21.10;57.10
7234;DHT22;3658;47.992;10.158;2022-10-16T05:44:10;21.00;57.10
7234;DHT22;3658;47.992;10.158;2022-10-16T05:46:38;21.00;57.10
7234;DHT22;3658;47.992;10.158;2022-10-16T05:49:05;21.10;57.20
7234;DHT22;3658;47.992;10.158;2022-10-16T05:51:32;21.10;57.20
7234;DHT22;3658;47.992;10.158;2022-10-16T05:54:00;21.00;57.10
7234;DHT22;3658;47.992;10.158;2022-10-16T05:56:27;21.00;57.10
7234;DHT22;3658;47.992;10.158;2022-10-16T05:58:54;21.00;57.10
7234;DHT22;3658;47.992;10.158;2022-10-16T06:01:21;21.00;57.10
7234;DHT22;3658;47.992;10.158;2022-10-16T06:03:49;21.00;57.10
7234;DHT22;3658;47.992;10.158;2022-10-16T06:06:18;21.00;57.10
7234;DHT22;3658;47.992;10.158;2022-10-16T06:08:46;21.00;57.10
7234;DHT22;3658;47.992;10.158;2022-10-16T06:11:17;21.00;57.10
7234;DHT22;3658;47.992;10.158;2022-10-16T06:13:44;21.00;57.10
7234;DHT22;3658;47.992;10.158;2022-10-16T06:16:13;21.00;57.20
7234;DHT22;3658;47.992;10.158;2022-10-16T06:18:40;21.00;57.40
7234;DHT22;3658;47.992;10.158;2022-10-16T06:21:08;21.10;57.50
7234;DHT22;3658;47.992;10.158;2022-10-16T06:23:35;21.10;57.50
7234;DHT22;3658;47.992;10.158;2022-10-16T06:26:06;21.10;57.50
7234;DHT22;3658;47.992;10.158;2022-10-16T06:28:35;21.10;57.60
7234;DHT22;3658;47.992;10.158;2022-10-16T06:31:03;21.10;57.70
7234;DHT22;3658;47.992;10.158;2022-10-16T06:33:30;21.20;57.80
7234;DHT22;3658;47.992;10.158;2022-10-16T06:36:01;21.20;57.90
7234;DHT22;3658;47.992;10.158;2022-10-16T06:38:29;21.20;58.00
7234;DHT22;3658;47.992;10.158;2022-10-16T06:40:56;21.20;58.10
7234;DHT22;3658;47.992;10.158;2022-10-16T06:43:23;21.20;58.30
7234;DHT22;3658;47.992;10.158;2022-10-16T06:45:52;21.20;58.30
7234;DHT22;3658;47.992;10.158;2022-10-16T06:48:20;21.20;58.40
7234;DHT22;3658;47.992;10.158;2022-10-16T06:50:56;21.20;58.30
7234;DHT22;3658;47.992;10.158;2022-10-16T06:53:23;21.30;58.50
7234;DHT22;3658;47.992;10.158;2022-10-16T06:55:51;21.30;58.50
7234;DHT22;3658;47.992;10.158;2022-10-16T06:58:18;21.30;58.60
7234;DHT22;3658;47.992;10.158;2022-10-16T07:00:45;21.30;58.60
7234;DHT22;3658;47.992;10.158;2022-10-16T07:03:14;21.30;58.70
7234;DHT22;3658;47.992;10.158;2022-10-16T07:05:41;21.30;58.70
7234;DHT22;3658;47.992;10.158;2022-10-16T07:08:09;21.30;58.70
7234;DHT22;3658;47.992;10.158;2022-10-16T07:10:36;21.30;58.80
7234;DHT22;3658;47.992;10.158;2022-10-16T07:13:03;21.30;58.80
7234;DHT22;3658;47.992;10.158;2022-10-16T07:15:30;21.30;58.80
7234;DHT22;3658;47.992;10.158;2022-10-16T07:17:57;21.30;58.70
7234;DHT22;3658;47.992;10.158;2022-10-16T07:20:26;21.30;58.60
7234;DHT22;3658;47.992;10.158;2022-10-16T07:22:53;21.30;58.60
7234;DHT22;3658;47.992;10.158;2022-10-16T07:25:20;21.30;58.60
7234;DHT22;3658;47.992;10.158;2022-10-16T07:27:47;21.30;58.60
7234;DHT22;3658;47.992;10.158;2022-10-16T07:30:14;21.30;58.70
7234;DHT22;3658;47.992;10.158;2022-10-16T07:32:41;21.30;58.60
7234;DHT22;3658;47.992;10.158;2022-10-16T07:35:08;21.40;58.90
7234;DHT22;3658;47.992;10.158;2022-10-16T07:37:36;21.40;58.90
7234;DHT22;3658;47.992;10.158;2022-10-16T07:40:04;21.40;59.30
7234;DHT22;3658;47.992;10.158;2022-10-16T07:42:32;21.40;59.40
7234;DHT22;3658;47.992;10.158;2022-10-16T07:44:59;21.40;59.40
7234;DHT22;3658;47.992;10.158;2022-10-16T07:47:26;21.50;59.60
7234;DHT22;3658;47.992;10.158;2022-10-16T07:49:53;21.50;59.60
7234;DHT22;3658;47.992;10.158;2022-10-16T07:52:19;21.50;59.60
7234;DHT22;3658;47.992;10.158;2022-10-16T07:54:48;21.50;59.60
7234;DHT22;3658;47.992;10.158;2022-10-16T07:57:15;21.50;59.60
7234;DHT22;3658;47.992;10.158;2022-10-16T07:59:46;21.50;59.50
7234;DHT22;3658;47.992;10.158;2022-10-16T08:02:14;21.50;59.50
7234;DHT22;3658;47.992;10.158;2022-10-16T08:04:41;21.50;59.50
7234;DHT22;3658;47.992;10.158;2022-10-16T08:07:08;21.60;59.60
7234;DHT22;3658;47.992;10.158;2022-10-16T08:09:35;21.60;59.50
7234;DHT22;3658;47.992;10.158;2022-10-16T08:12:03;21.60;59.60
7234;DHT22;3658;47.992;10.158;2022-10-16T08:14:30;21.60;59.60
7234;DHT22;3658;47.992;10.158;2022-10-16T08:16:57;21.60;59.60
7234;DHT22;3658;47.992;10.158;2022-10-16T08:19:24;21.60;59.60
7234;DHT22;3658;47.992;10.158;2022-10-16T08:21:51;21.60;59.60
7234;DHT22;3658;47.992;10.158;2022-10-16T08:24:18;21.60;59.60
7234;DHT22;3658;47.992;10.158;2022-10-16T08:26:45;21.70;59.60
7234;DHT22;3658;47.992;10.158;2022-10-16T08:29:14;21.70;59.70
7234;DHT22;3658;47.992;10.158;2022-10-16T08:31:41;21.70;59.70
7234;DHT22;3658;47.992;10.158;2022-10-16T08:34:08;21.70;59.60
7234;DHT22;3658;47.992;10.158;2022-10-16T08:36:35;21.70;59.60
7234;DHT22;3658;47.992;10.158;2022-10-16T08:39:03;21.70;59.60
7234;DHT22;3658;47.992;10.158;2022-10-16T08:42:06;21.70;59.60
7234;DHT22;3658;47.992;10.158;2022-10-16T08:44:54;21.70;59.50
7234;DHT22;3658;47.992;10.158;2022-10-16T08:47:38;21.70;59.60
7234;DHT22;3658;47.992;10.158;2022-10-16T08:50:10;21.70;59.60
7234;DHT22;3658;47.992;10.158;2022-10-16T08:52:40;21.70;59.50
7234;DHT22;3658;47.992;10.158;2022-10-16T08:55:19;21.70;59.60
7234;DHT22;3658;47.992;10.158;2022-10-16T08:57:51;21.70;59.60
7234;DHT22;3658;47.992;10.158;2022-10-16T09:00:20;21.70;59.70
7234;DHT22;3658;47.992;10.158;2022-10-16T09:02:52;21.70;59.80
7234;DHT22;3658;47.992;10.158;2022-10-16T09:05:43;21.80;59.90
7234;DHT22;3658;47.992;10.158;2022-10-16T09:08:17;21.70;59.80
7234;DHT22;3658;47.992;10.158;2022-10-16T09:10:54;21.70;59.80
7234;DHT22;3658;47.992;10.158;2022-10-16T09:13:27;21.80;59.80
7234;DHT22;3658;47.992;10.158;2022-10-16T09:16:07;21.70;59.80
7234;DHT22;3658;47.992;10.158;2022-10-16T09:18:40;21.80;59.80
7234;DHT22;3658;47.992;10.158;2022-10-16T09:21:14;21.70;59.80
7234;DHT22;3658;47.992;10.158;2022-10-16T09:23:42;21.70;59.80
7234;DHT22;3658;47.992;10.158;2022-10-16T09:26:11;21.70;59.80
7234;DHT22;3658;47.992;10.158;2022-10-16T09:28:40;21.70;60.00
7234;DHT22;3658;47.992;10.158;2022-10-16T09:31:13;21.80;60.10
7234;DHT22;3658;47.992;10.158;2022-10-16T09:33:42;21.80;60.10
7234;DHT22;3658;47.992;10.158;2022-10-16T09:36:12;21.70;60.70
7234;DHT22;3658;47.992;10.158;2022-10-16T09:38:40;21.70;59.90
7234;DHT22;3658;47.992;10.158;2022-10-16T09:41:15;21.70;60.10
7234;DHT22;3658;47.992;10.158;2022-10-16T09:43:47;21.80;60.00
7234;DHT22;3658;47.992;10.158;2022-10-16T09:46:26;21.80;59.80
7234;DHT22;3658;47.992;10.158;2022-10-16T09:48:56;21.70;59.60
7234;DHT22;3658;47.992;10.158;2022-10-16T09:51:25;21.70;59.60
7234;DHT22;3658;47.992;10.158;2022-10-16T09:53:58;21.60;59.70
7234;DHT22;3658;47.992;10.158;2022-10-16T09:56:27;21.70;59.90
7234;DHT22;3658;47.992;10.158;2022-10-16T09:58:56;21.70;60.00
7234;DHT22;3658;47.992;10.158;2022-10-16T10:01:30;21.70;59.90
7234;DHT22;3658;47.992;10.158;2022-10-16T10:03:58;21.70;59.70
7234;DHT22;3658;47.992;10.158;2022-10-16T10:06:30;21.60;59.00
7234;DHT22;3658;47.992;10.158;2022-10-16T10:09:05;21.60;58.70
7234;DHT22;3658;47.992;10.158;2022-10-16T10:11:37;21.60;58.70
7234;DHT22;3658;47.992;10.158;2022-10-16T10:14:05;21.60;58.30
7234;DHT22;3658;47.992;10.158;2022-10-16T10:16:34;21.50;58.10
7234;DHT22;3658;47.992;10.158;2022-10-16T10:19:02;21.50;57.90
7234;DHT22;3658;47.992;10.158;2022-10-16T10:21:35;21.50;58.10
7234;DHT22;3658;47.992;10.158;2022-10-16T10:24:05;21.50;58.10
7234;DHT22;3658;47.992;10.158;2022-10-16T10:26:33;21.50;58.10
7234;DHT22;3658;47.992;10.158;2022-10-16T10:29:06;21.50;58.00
7234;DHT22;3658;47.992;10.158;2022-10-16T10:31:47;21.50;58.00
7234;DHT22;3658;47.992;10.158;2022-10-16T10:34:39;21.50;58.00
7234;DHT22;3658;47.992;10.158;2022-10-16T10:37:22;21.40;57.90
7234;DHT22;3658;47.992;10.158;2022-10-16T10:39:57;21.50;58.00
7234;DHT22;3658;47.992;10.158;2022-10-16T10:42:31;21.40;57.90
7234;DHT22;3658;47.992;10.158;2022-10-16T10:45:18;21.40;57.80
7234;DHT22;3658;47.992;10.158;2022-10-16T10:47:59;21.50;58.00
7234;DHT22;3658;47.992;10.158;2022-10-16T10:50:37;21.40;57.90
7234;DHT22;3658;47.992;10.158;2022-10-16T10:53:14;21.40;57.80
7234;DHT22;3658;47.992;10.158;2022-10-16T10:55:47;21.40;57.80
7234;DHT22;3658;47.992;10.158;2022-10-16T10:58:50;21.40;57.70
7234;DHT22;3658;47.992;10.158;2022-10-16T11:01:30;21.40;57.50
7234;DHT22;3658;47.992;10.158;2022-10-16T11:04:15;21.40;57.40
7234;DHT22;3658;47.992;10.158;2022-10-16T11:06:50;21.40;57.30
7234;DHT22;3658;47.992;10.158;2022-10-16T11:09:27;21.40;57.20
7234;DHT22;3658;47.992;10.158;2022-10-16T11:12:01;21.40;57.30
7234;DHT22;3658;47.992;10.158;2022-10-16T11:14:36;21.40;57.40
7234;DHT22;3658;47.992;10.158;2022-10-16T11:17:10;21.40;57.20
7234;DHT22;3658;47.992;10.158;2022-10-16T11:19:45;21.40;57.20
7234;DHT22;3658;47.992;10.158;2022-10-16T11:22:19;21.40;57.00
7234;DHT22;3658;47.992;10.158;2022-10-16T11:24:53;21.40;57.20
7234;DHT22;3658;47.992;10.158;2022-10-16T11:27:33;21.40;57.20
7234;DHT22;3658;47.992;10.158;2022-10-16T11:30:05;21.40;57.20
7234;DHT22;3658;47.992;10.158;2022-10-16T11:32:40;21.40;57.20
7234;DHT22;3658;47.992;10.158;2022-10-16T11:35:19;21.40;57.20
7234;DHT22;3658;47.992;10.158;2022-10-16T11:37:49;21.40;57.20
7234;DHT22;3658;47.992;10.158;2022-10-16T11:40:22;21.40;57.20
7234;DHT22;3658;47.992;10.158;2022-10-16T11:42:54;21.40;57.10
7234;DHT22;3658;47.992;10.158;2022-10-16T11:45:28;21.50;57.10
7234;DHT22;3658;47.992;10.158;2022-10-16T11:48:02;21.50;57.00
7234;DHT22;3658;47.992;10.158;2022-10-16T11:50:35;21.50;57.00
7234;DHT22;3658;47.992;10.158;2022-10-16T11:53:11;21.50;56.90
7234;DHT22;3658;47.992;10.158;2022-10-16T11:59:05;21.50;56.20
7234;DHT22;3658;47.992;10.158;2022-10-16T12:01:40;21.50;56.20
7234;DHT22;3658;47.992;10.158;2022-10-16T12:04:28;21.50;56.00
7234;DHT22;3658;47.992;10.158;2022-10-16T12:07:04;21.50;56.10
7234;DHT22;3658;47.992;10.158;2022-10-16T12:09:34;21.50;55.80
7234;DHT22;3658;47.992;10.158;2022-10-16T12:12:01;21.50;55.70
7234;DHT22;3658;47.992;10.158;2022-10-16T12:14:37;21.50;55.40
7234;DHT22;3658;47.992;10.158;2022-10-16T12:17:24;21.50;55.40
7234;DHT22;3658;47.992;10.158;2022-10-16T12:20:01;21.50;55.30
7234;DHT22;3658;47.992;10.158;2022-10-16T12:22:31;21.50;55.00
7234;DHT22;3658;47.992;10.158;2022-10-16T12:24:58;21.50;54.60
7234;DHT22;3658;47.992;10.158;2022-10-16T12:27:29;21.50;54.30
7234;DHT22;3658;47.992;10.158;2022-10-16T12:29:58;21.50;54.40
7234;DHT22;3658;47.992;10.158;2022-10-16T12:32:29;21.50;54.40
7234;DHT22;3658;47.992;10.158;2022-10-16T12:34:58;21.50;54.30
7234;DHT22;3658;47.992;10.158;2022-10-16T12:37:29;21.50;54.10
7234;DHT22;3658;47.992;10.158;2022-10-16T12:39:58;21.50;54.20
7234;DHT22;3658;47.992;10.158;2022-10-16T12:42:33;21.50;54.40
7234;DHT22;3658;47.992;10.158;2022-10-16T12:45:01;21.50;54.70
7234;DHT22;3658;47.992;10.158;2022-10-16T12:47:47;21.50;54.80
7234;DHT22;3658;47.992;10.158;2022-10-16T12:50:27;21.50;55.10
7234;DHT22;3658;47.992;10.158;2022-10-16T12:52:55;21.50;55.70
7234;DHT22;3658;47.992;10.158;2022-10-16T12:55:23;21.50;56.00
7234;DHT22;3658;47.992;10.158;2022-10-16T12:58:05;21.50;56.00
7234;DHT22;3658;47.992;10.158;2022-10-16T13:00:41;21.50;55.90
7234;DHT22;3658;47.992;10.158;2022-10-16T13:03:39;21.50;56.00
7234;DHT22;3658;47.992;10.158;2022-10-16T13:06:20;21.50;56.10
7234;DHT22;3658;47.992;10.158;2022-10-16T13:09:10;21.50;56.10
7234;DHT22;3658;47.992;10.158;2022-10-16T13:12:06;21.40;56.10
7234;DHT22;3658;47.992;10.158;2022-10-16T13:15:01;21.40;56.20
7234;DHT22;3658;47.992;10.158;2022-10-16T13:17:37;21.40;56.30
7234;DHT22;3658;47.992;10.158;2022-10-16T13:20:15;21.40;56.40
7234;DHT22;3658;47.992;10.158;2022-10-16T13:22:51;21.40;56.40
7234;DHT22;3658;47.992;10.158;2022-10-16T13:25:26;21.40;56.40
7234;DHT22;3658;47.992;10.158;2022-10-16T13:27:58;21.40;56.40
7234;DHT22;3658;47.992;10.158;2022-10-16T13:30:28;21.40;56.50
7234;DHT22;3658;47.992;10.158;2022-10-16T13:33:00;21.40;56.50
7234;DHT22;3658;47.992;10.158;2022-10-16T13:35:29;21.40;56.50
7234;DHT22;3658;47.992;10.158;2022-10-16T13:38:12;21.40;56.60
7234;DHT22;3658;47.992;10.158;2022-10-16T13:40:53;21.40;56.60
7234;DHT22;3658;47.992;10.158;2022-10-16T13:43:24;21.40;56.70
7234;DHT22;3658;47.992;10.158;2022-10-16T13:45:56;21.40;56.70
7234;DHT22;3658;47.992;10.158;2022-10-16T13:48:23;21.40;56.70
7234;DHT22;3658;47.992;10.158;2022-10-16T13:51:05;21.40;56.70
7234;DHT22;3658;47.992;10.158;2022-10-16T13:53:34;21.40;56.70
7234;DHT22;3658;47.992;10.158;2022-10-16T13:56:05;21.40;56.80
7234;DHT22;3658;47.992;10.158;2022-10-16T13:58:33;21.40;56.80
7234;DHT22;3658;47.992;10.158;2022-10-16T14:01:02;21.40;56.80
7234;DHT22;3658;47.992;10.158;2022-10-16T14:03:31;21.40;56.80
7234;DHT22;3658;47.992;10.158;2022-10-16T14:06:01;21.40;56.80
7234;DHT22;3658;47.992;10.158;2022-10-16T14:08:30;21.40;56.90
7234;DHT22;3658;47.992;10.158;2022-10-16T14:10:59;21.40;56.90
7234;DHT22;3658;47.992;10.158;2022-10-16T14:13:32;21.40;56.90
7234;DHT22;3658;47.992;10.158;2022-10-16T14:16:05;21.40;56.90
7234;DHT22;3658;47.992;10.158;2022-10-16T14:18:34;21.40;56.90
7234;DHT22;3658;47.992;10.158;2022-10-16T14:21:05;21.40;56.90
7234;DHT22;3658;47.992;10.158;2022-10-16T14:23:35;21.40;56.90
7234;DHT22;3658;47.992;10.158;2022-10-16T14:26:12;21.40;57.00
7234;DHT22;3658;47.992;10.158;2022-10-16T14:28:43;21.40;57.00
7234;DHT22;3658;47.992;10.158;2022-10-16T14:31:37;21.40;57.00
7234;DHT22;3658;47.992;10.158;2022-10-16T14:36:47;21.40;57.00
7234;DHT22;3658;47.992;10.158;2022-10-16T14:39:18;21.30;56.90
7234;DHT22;3658;47.992;10.158;2022-10-16T14:41:47;21.40;57.00
7234;DHT22;3658;47.992;10.158;2022-10-16T14:44:17;21.40;57.10
7234;DHT22;3658;47.992;10.158;2022-10-16T14:46:45;21.30;57.00
7234;DHT22;3658;47.992;10.158;2022-10-16T14:49:16;21.30;57.00
7234;DHT22;3658;47.992;10.158;2022-10-16T14:51:44;21.30;57.10
7234;DHT22;3658;47.992;10.158;2022-10-16T14:54:12;21.30;57.10
7234;DHT22;3658;47.992;10.158;2022-10-16T14:56:46;21.30;57.00
7234;DHT22;3658;47.992;10.158;2022-10-16T14:59:18;21.30;57.00
7234;DHT22;3658;47.992;10.158;2022-10-16T15:01:47;21.30;57.00
7234;DHT22;3658;47.992;10.158;2022-10-16T15:04:14;21.30;57.10
7234;DHT22;3658;47.992;10.158;2022-10-16T15:06:42;21.30;57.10
7234;DHT22;3658;47.992;10.158;2022-10-16T15:09:09;21.30;57.10
7234;DHT22;3658;47.992;10.158;2022-10-16T15:11:36;21.30;57.10
7234;DHT22;3658;47.992;10.158;2022-10-16T15:14:03;21.30;57.10
7234;DHT22;3658;47.992;10.158;2022-10-16T15:16:32;21.30;57.10
7234;DHT22;3658;47.992;10.158;2022-10-16T15:18:59;21.30;57.10
7234;DHT22;3658;47.992;10.158;2022-10-16T15:21:28;21.30;57.10
7234;DHT22;3658;47.992;10.158;2022-10-16T15:23:55;21.30;57.10
7234;DHT22;3658;47.992;10.158;2022-10-16T15:26:23;21.30;57.10
7234;DHT22;3658;47.992;10.158;2022-10-16T15:28:50;21.30;57.10
7234;DHT22;3658;47.992;10.158;2022-10-16T15:31:17;21.30;57.10
7234;DHT22;3658;47.992;10.158;2022-10-16T15:33:45;21.30;57.10
7234;DHT22;3658;47.992;10.158;2022-10-16T15:36:24;21.30;57.10
7234;DHT22;3658;47.992;10.158;2022-10-16T15:38:51;21.30;57.80
7234;DHT22;3658;47.992;10.158;2022-10-16T15:41:19;21.30;57.20
7234;DHT22;3658;47.992;10.158;2022-10-16T15:43:48;21.30;57.20
7234;DHT22;3658;47.992;10.158;2022-10-16T15:46:18;21.30;57.20
7234;DHT22;3658;47.992;10.158;2022-10-16T15:48:47;21.30;57.20
7234;DHT22;3658;47.992;10.158;2022-10-16T15:51:15;21.30;57.20
7234;DHT22;3658;47.992;10.158;2022-10-16T15:53:42;21.30;57.20
7234;DHT22;3658;47.992;10.158;2022-10-16T15:56:11;21.30;57.20
7234;DHT22;3658;47.992;10.158;2022-10-16T15:58:38;21.30;57.20
7234;DHT22;3658;47.992;10.158;2022-10-16T16:01:08;21.30;57.20
7234;DHT22;3658;47.992;10.158;2022-10-16T16:03:37;21.30;57.20
7234;DHT22;3658;47.992;10.158;2022-10-16T16:06:09;21.30;57.20
7234;DHT22;3658;47.992;10.158;2022-10-16T16:08:36;21.30;57.20
7234;DHT22;3658;47.992;10.158;2022-10-16T16:11:05;21.30;57.20
7234;DHT22;3658;47.992;10.158;2022-10-16T16:13:32;21.30;57.20